sensor_id;sensor_type;location;lat;lon;timestamp;P1;durP1;ratioP1;P2;durP2;ratioP2
39738;SDS011;25422;48.286;8.484;2023-01-09T00:00:17;3.45;;;3.10;;
39738;SDS011;25422;48.286;8.484;2023-01-09T00:02:44;4.38;;;2.90;;
39738;SDS011;25422;48.286;8.484;2023-01-09T00:05:11;3.22;;;2.92;;
39738;SDS011;25422;48.286;8.484;2023-01-09T00:07:38;4.40;;;3.10;;
39738;SDS011;25422;48.286;8.484;2023-01-09T00:10:04;3.03;;;2.72;;
39738;SDS011;25422;48.286;8.484;2023-01-09T00:12:30;2.70;;;2.47;;
39738;SDS011;25422;48.286;8.484;2023-01-09T00:14:55;2.95;;;2.70;;
39738;SDS011;25422;48.286;8.484;2023-01-09T00:17:21;2.80;;;2.60;;
39738;SDS011;25422;48.286;8.484;2023-01-09T00:19:46;5.35;;;2.90;;
39738;SDS011;25422;48.286;8.484;2023-01-09T00:22:12;4.57;;;3.58;;
39738;SDS011;25422;48.286;8.484;2023-01-09T00:24:37;4.80;;;3.08;;
39738;SDS011;25422;48.286;8.484;2023-01-09T00:27:03;4.22;;;3.15;;
39738;SDS011;25422;48.286;8.484;2023-01-09T00:29:28;3.88;;;3.47;;
39738;SDS011;25422;48.286;8.484;2023-01-09T00:31:54;3.85;;;3.45;;
39738;SDS011;25422;48.286;8.484;2023-01-09T00:34:19;3.50;;;3.20;;
39738;SDS011;25422;48.286;8.484;2023-01-09T00:36:45;3.38;;;3.08;;
39738;SDS011;25422;48.286;8.484;2023-01-09T00:39:10;3.50;;;3.17;;
39738;SDS011;25422;48.286;8.484;2023-01-09T00:41:38;3.38;;;3.05;;
39738;SDS011;25422;48.286;8.484;2023-01-09T00:44:12;3.60;;;3.10;;
39738;SDS011;25422;48.286;8.484;2023-01-09T00:46:43;4.55;;;3.25;;
39738;SDS011;25422;48.286;8.484;2023-01-09T00:49:12;3.40;;;3.08;;
39738;SDS011;25422;48.286;8.484;2023-01-09T00:51:39;2.80;;;2.60;;
39738;SDS011;25422;48.286;8.484;2023-01-09T00:54:05;3.25;;;2.90;;
39738;SDS011;25422;48.286;8.484;2023-01-09T00:56:32;3.10;;;2.80;;
39738;SDS011;25422;48.286;8.484;2023-01-09T00:59:00;2.47;;;2.28;;
39738;SDS011;25422;48.286;8.484;2023-01-09T01:01:26;1.73;;;1.60;;
39738;SDS011;25422;48.286;8.484;2023-01-09T01:03:51;2.50;;;1.75;;
39738;SDS011;25422;48.286;8.484;2023-01-09T01:06:17;1.88;;;1.25;;
39738;SDS011;25422;48.286;8.484;2023-01-09T01:09:01;0.88;;;0.88;;
39738;SDS011;25422;48.286;8.484;2023-01-09T01:11:26;1.70;;;1.05;;
39738;SDS011;25422;48.286;8.484;2023-01-09T01:13:52;1.55;;;1.45;;
39738;SDS011;25422;48.286;8.484;2023-01-09T01:16:18;2.33;;;1.88;;
39738;SDS011;25422;48.286;8.484;2023-01-09T01:18:44;2.15;;;1.95;;
39738;SDS011;25422;48.286;8.484;2023-01-09T01:21:10;2.50;;;2.30;;
39738;SDS011;25422;48.286;8.484;2023-01-09T01:23:37;2.38;;;2.17;;
39738;SDS011;25422;48.286;8.484;2023-01-09T01:26:06;2.60;;;2.40;;
39738;SDS011;25422;48.286;8.484;2023-01-09T01:28:36;2.63;;;2.40;;
39738;SDS011;25422;48.286;8.484;2023-01-09T01:31:02;4.72;;;3.03;;
39738;SDS011;25422;48.286;8.484;2023-01-09T01:33:28;3.45;;;2.72;;
39738;SDS011;25422;48.286;8.484;2023-01-09T01:36:00;2.35;;;2.15;;
39738;SDS011;25422;48.286;8.484;2023-01-09T01:38:27;2.55;;;2.35;;
39738;SDS011;25422;48.286;8.484;2023-01-09T01:40:54;2.30;;;2.10;;
39738;SDS011;25422;48.286;8.484;2023-01-09T01:43:20;2.60;;;2.40;;
39738;SDS011;25422;48.286;8.484;2023-01-09T01:45:45;5.38;;;3.10;;
39738;SDS011;25422;48.286;8.484;2023-01-09T01:48:12;3.08;;;2.25;;
39738;SDS011;25422;48.286;8.484;2023-01-09T01:50:43;2.55;;;2.35;;
39738;SDS011;25422;48.286;8.484;2023-01-09T01:53:20;2.53;;;2.33;;
39738;SDS011;25422;48.286;8.484;2023-01-09T01:56:04;2.38;;;2.17;;
39738;SDS011;25422;48.286;8.484;2023-01-09T01:58:35;2.97;;;2.70;;
39738;SDS011;25422;48.286;8.484;2023-01-09T02:01:06;2.60;;;2.40;;
39738;SDS011;25422;48.286;8.484;2023-01-09T02:03:32;4.18;;;2.63;;
39738;SDS011;25422;48.286;8.484;2023-01-09T02:06:00;2.38;;;2.17;;
39738;SDS011;25422;48.286;8.484;2023-01-09T02:08:28;2.30;;;2.10;;
39738;SDS011;25422;48.286;8.484;2023-01-09T02:10:54;0.90;;;0.90;;
39738;SDS011;25422;48.286;8.484;2023-01-09T02:13:20;1.00;;;0.90;;
39738;SDS011;25422;48.286;8.484;2023-01-09T02:15:56;0.70;;;0.70;;
39738;SDS011;25422;48.286;8.484;2023-01-09T02:21:20;1.50;;;0.70;;
39738;SDS011;25422;48.286;8.484;2023-01-09T02:35:18;0.70;;;0.70;;
39738;SDS011;25422;48.286;8.484;2023-01-09T02:41:13;1.23;;;0.80;;
39738;SDS011;25422;48.286;8.484;2023-01-09T02:43:38;0.70;;;0.70;;
39738;SDS011;25422;48.286;8.484;2023-01-09T02:46:03;0.85;;;0.85;;
39738;SDS011;25422;48.286;8.484;2023-01-09T02:48:29;11.55;;;7.50;;
39738;SDS011;25422;48.286;8.484;2023-01-09T02:59:08;0.85;;;0.63;;
39738;SDS011;25422;48.286;8.484;2023-01-09T03:01:58;0.60;;;0.60;;
39738;SDS011;25422;48.286;8.484;2023-01-09T03:09:55;0.63;;;0.63;;
39738;SDS011;25422;48.286;8.484;2023-01-09T03:12:28;4.03;;;0.80;;
39738;SDS011;25422;48.286;8.484;2023-01-09T03:14:57;1.75;;;0.90;;
39738;SDS011;25422;48.286;8.484;2023-01-09T03:17:33;4.45;;;0.85;;
39738;SDS011;25422;48.286;8.484;2023-01-09T03:20:03;1.38;;;1.05;;
39738;SDS011;25422;48.286;8.484;2023-01-09T03:22:33;1.20;;;1.20;;
39738;SDS011;25422;48.286;8.484;2023-01-09T03:24:58;2.13;;;1.20;;
39738;SDS011;25422;48.286;8.484;2023-01-09T03:27:23;1.35;;;1.25;;
39738;SDS011;25422;48.286;8.484;2023-01-09T03:29:49;1.20;;;1.10;;
39738;SDS011;25422;48.286;8.484;2023-01-09T03:32:17;0.93;;;0.93;;
39738;SDS011;25422;48.286;8.484;2023-01-09T03:34:43;1.20;;;1.10;;
39738;SDS011;25422;48.286;8.484;2023-01-09T03:37:08;1.45;;;1.30;;
39738;SDS011;25422;48.286;8.484;2023-01-09T03:39:33;2.08;;;1.30;;
39738;SDS011;25422;48.286;8.484;2023-01-09T03:41:59;1.33;;;1.23;;
39738;SDS011;25422;48.286;8.484;2023-01-09T03:44:24;3.22;;;1.20;;
39738;SDS011;25422;48.286;8.484;2023-01-09T03:46:50;1.70;;;1.60;;
39738;SDS011;25422;48.286;8.484;2023-01-09T03:49:15;1.50;;;1.40;;
39738;SDS011;25422;48.286;8.484;2023-01-09T03:51:41;3.13;;;1.50;;
39738;SDS011;25422;48.286;8.484;2023-01-09T03:54:07;1.42;;;1.30;;
39738;SDS011;25422;48.286;8.484;2023-01-09T03:56:33;0.90;;;0.90;;
39738;SDS011;25422;48.286;8.484;2023-01-09T03:58:58;1.00;;;0.90;;
39738;SDS011;25422;48.286;8.484;2023-01-09T04:01:23;0.77;;;0.77;;
39738;SDS011;25422;48.286;8.484;2023-01-09T04:03:49;0.77;;;0.73;;
39738;SDS011;25422;48.286;8.484;2023-01-09T04:06:14;0.82;;;0.80;;
39738;SDS011;25422;48.286;8.484;2023-01-09T04:08:39;0.70;;;0.70;;
39738;SDS011;25422;48.286;8.484;2023-01-09T04:11:05;0.60;;;0.60;;
39738;SDS011;25422;48.286;8.484;2023-01-09T04:13:30;0.70;;;0.70;;
39738;SDS011;25422;48.286;8.484;2023-01-09T04:15:56;0.88;;;0.80;;
39738;SDS011;25422;48.286;8.484;2023-01-09T04:18:21;0.80;;;0.80;;
39738;SDS011;25422;48.286;8.484;2023-01-09T04:20:47;2.25;;;0.80;;
39738;SDS011;25422;48.286;8.484;2023-01-09T04:23:13;0.82;;;0.82;;
39738;SDS011;25422;48.286;8.484;2023-01-09T04:25:38;1.88;;;0.75;;
39738;SDS011;25422;48.286;8.484;2023-01-09T04:28:04;0.90;;;0.90;;
39738;SDS011;25422;48.286;8.484;2023-01-09T04:30:29;2.67;;;1.00;;
39738;SDS011;25422;48.286;8.484;2023-01-09T04:32:55;1.90;;;0.90;;
39738;SDS011;25422;48.286;8.484;2023-01-09T04:35:20;0.82;;;0.82;;
39738;SDS011;25422;48.286;8.484;2023-01-09T04:37:46;1.52;;;0.95;;
39738;SDS011;25422;48.286;8.484;2023-01-09T04:40:12;1.58;;;0.70;;
39738;SDS011;25422;48.286;8.484;2023-01-09T04:42:38;1.50;;;0.93;;
39738;SDS011;25422;48.286;8.484;2023-01-09T04:45:04;0.95;;;0.90;;
39738;SDS011;25422;48.286;8.484;2023-01-09T04:47:31;1.00;;;1.00;;
39738;SDS011;25422;48.286;8.484;2023-01-09T04:49:57;0.90;;;0.90;;
39738;SDS011;25422;48.286;8.484;2023-01-09T04:52:22;1.08;;;0.88;;
39738;SDS011;25422;48.286;8.484;2023-01-09T04:54:48;2.75;;;0.85;;
39738;SDS011;25422;48.286;8.484;2023-01-09T04:57:13;1.10;;;0.80;;
39738;SDS011;25422;48.286;8.484;2023-01-09T04:59:39;1.77;;;1.00;;
39738;SDS011;25422;48.286;8.484;2023-01-09T05:02:04;1.70;;;0.90;;
39738;SDS011;25422;48.286;8.484;2023-01-09T05:04:30;1.08;;;0.98;;
39738;SDS011;25422;48.286;8.484;2023-01-09T05:06:55;2.13;;;1.13;;
39738;SDS011;25422;48.286;8.484;2023-01-09T05:09:20;1.35;;;0.82;;
39738;SDS011;25422;48.286;8.484;2023-01-09T05:11:47;1.60;;;1.00;;
39738;SDS011;25422;48.286;8.484;2023-01-09T05:14:12;1.73;;;0.88;;
39738;SDS011;25422;48.286;8.484;2023-01-09T05:16:38;2.35;;;0.95;;
39738;SDS011;25422;48.286;8.484;2023-01-09T05:19:03;0.80;;;0.80;;
39738;SDS011;25422;48.286;8.484;2023-01-09T05:21:29;1.58;;;0.93;;
39738;SDS011;25422;48.286;8.484;2023-01-09T05:23:54;2.22;;;0.93;;
39738;SDS011;25422;48.286;8.484;2023-01-09T05:26:20;1.40;;;0.90;;
39738;SDS011;25422;48.286;8.484;2023-01-09T05:28:49;3.90;;;1.00;;
39738;SDS011;25422;48.286;8.484;2023-01-09T05:31:16;1.50;;;0.95;;
39738;SDS011;25422;48.286;8.484;2023-01-09T05:33:42;5.70;;;2.55;;
39738;SDS011;25422;48.286;8.484;2023-01-09T05:36:07;2.22;;;0.90;;
39738;SDS011;25422;48.286;8.484;2023-01-09T05:38:33;1.30;;;1.00;;
39738;SDS011;25422;48.286;8.484;2023-01-09T05:40:58;2.58;;;1.10;;
39738;SDS011;25422;48.286;8.484;2023-01-09T05:43:24;2.67;;;1.00;;
39738;SDS011;25422;48.286;8.484;2023-01-09T05:45:49;7.10;;;2.88;;
39738;SDS011;25422;48.286;8.484;2023-01-09T05:48:14;3.63;;;1.27;;
39738;SDS011;25422;48.286;8.484;2023-01-09T05:50:40;2.10;;;1.30;;
39738;SDS011;25422;48.286;8.484;2023-01-09T05:53:05;3.92;;;1.45;;
39738;SDS011;25422;48.286;8.484;2023-01-09T05:55:31;3.70;;;1.00;;
39738;SDS011;25422;48.286;8.484;2023-01-09T05:57:57;3.67;;;1.08;;
39738;SDS011;25422;48.286;8.484;2023-01-09T06:00:22;5.43;;;1.25;;
39738;SDS011;25422;48.286;8.484;2023-01-09T06:02:48;4.07;;;1.30;;
39738;SDS011;25422;48.286;8.484;2023-01-09T06:05:13;1.77;;;1.10;;
39738;SDS011;25422;48.286;8.484;2023-01-09T06:07:39;5.28;;;2.55;;
39738;SDS011;25422;48.286;8.484;2023-01-09T06:10:06;6.88;;;2.17;;
39738;SDS011;25422;48.286;8.484;2023-01-09T06:12:34;6.55;;;1.38;;
39738;SDS011;25422;48.286;8.484;2023-01-09T06:15:00;3.90;;;1.13;;
39738;SDS011;25422;48.286;8.484;2023-01-09T06:17:25;5.22;;;1.10;;
39738;SDS011;25422;48.286;8.484;2023-01-09T06:19:50;3.15;;;1.30;;
39738;SDS011;25422;48.286;8.484;2023-01-09T06:22:16;5.65;;;1.33;;
39738;SDS011;25422;48.286;8.484;2023-01-09T06:24:41;4.10;;;1.20;;
39738;SDS011;25422;48.286;8.484;2023-01-09T06:27:07;3.10;;;1.48;;
39738;SDS011;25422;48.286;8.484;2023-01-09T06:29:32;2.65;;;1.17;;
39738;SDS011;25422;48.286;8.484;2023-01-09T06:31:57;3.83;;;1.20;;
39738;SDS011;25422;48.286;8.484;2023-01-09T06:34:23;3.85;;;1.48;;
39738;SDS011;25422;48.286;8.484;2023-01-09T06:36:48;6.10;;;1.40;;
39738;SDS011;25422;48.286;8.484;2023-01-09T06:39:13;5.60;;;1.40;;
39738;SDS011;25422;48.286;8.484;2023-01-09T06:41:39;6.32;;;3.00;;
39738;SDS011;25422;48.286;8.484;2023-01-09T06:44:04;3.47;;;1.08;;
39738;SDS011;25422;48.286;8.484;2023-01-09T06:46:30;3.88;;;1.25;;
39738;SDS011;25422;48.286;8.484;2023-01-09T06:48:55;5.57;;;1.02;;
39738;SDS011;25422;48.286;8.484;2023-01-09T06:51:20;9.95;;;1.45;;
39738;SDS011;25422;48.286;8.484;2023-01-09T06:53:46;3.72;;;1.40;;
39738;SDS011;25422;48.286;8.484;2023-01-09T06:56:11;3.63;;;1.13;;
39738;SDS011;25422;48.286;8.484;2023-01-09T06:58:37;2.58;;;1.08;;
39738;SDS011;25422;48.286;8.484;2023-01-09T07:01:02;3.75;;;1.02;;
39738;SDS011;25422;48.286;8.484;2023-01-09T07:03:27;6.55;;;1.40;;
39738;SDS011;25422;48.286;8.484;2023-01-09T07:05:53;5.93;;;1.50;;
39738;SDS011;25422;48.286;8.484;2023-01-09T07:08:18;7.85;;;1.90;;
39738;SDS011;25422;48.286;8.484;2023-01-09T07:10:44;3.90;;;1.80;;
39738;SDS011;25422;48.286;8.484;2023-01-09T07:13:09;5.95;;;1.70;;
39738;SDS011;25422;48.286;8.484;2023-01-09T07:15:35;6.43;;;1.48;;
39738;SDS011;25422;48.286;8.484;2023-01-09T07:18:01;7.25;;;1.70;;
39738;SDS011;25422;48.286;8.484;2023-01-09T07:20:26;7.10;;;1.40;;
39738;SDS011;25422;48.286;8.484;2023-01-09T07:22:52;6.50;;;1.52;;
39738;SDS011;25422;48.286;8.484;2023-01-09T07:25:18;3.47;;;1.30;;
39738;SDS011;25422;48.286;8.484;2023-01-09T07:27:43;3.58;;;1.65;;
39738;SDS011;25422;48.286;8.484;2023-01-09T07:30:09;5.15;;;1.48;;
39738;SDS011;25422;48.286;8.484;2023-01-09T07:32:35;5.80;;;1.40;;
39738;SDS011;25422;48.286;8.484;2023-01-09T07:35:02;4.88;;;1.30;;
39738;SDS011;25422;48.286;8.484;2023-01-09T07:37:28;4.40;;;1.20;;
39738;SDS011;25422;48.286;8.484;2023-01-09T07:39:54;3.20;;;0.95;;
39738;SDS011;25422;48.286;8.484;2023-01-09T07:42:19;6.80;;;1.48;;
39738;SDS011;25422;48.286;8.484;2023-01-09T07:44:45;3.78;;;1.38;;
39738;SDS011;25422;48.286;8.484;2023-01-09T07:47:10;1.30;;;1.10;;
39738;SDS011;25422;48.286;8.484;2023-01-09T07:49:35;5.05;;;1.20;;
39738;SDS011;25422;48.286;8.484;2023-01-09T07:52:01;5.57;;;1.00;;
39738;SDS011;25422;48.286;8.484;2023-01-09T07:54:27;6.50;;;1.10;;
39738;SDS011;25422;48.286;8.484;2023-01-09T07:56:52;8.20;;;3.38;;
39738;SDS011;25422;48.286;8.484;2023-01-09T07:59:18;6.25;;;1.58;;
39738;SDS011;25422;48.286;8.484;2023-01-09T08:01:43;7.50;;;1.63;;
39738;SDS011;25422;48.286;8.484;2023-01-09T08:04:09;5.85;;;1.45;;
39738;SDS011;25422;48.286;8.484;2023-01-09T08:06:34;5.70;;;1.42;;
39738;SDS011;25422;48.286;8.484;2023-01-09T08:09:00;4.68;;;1.10;;
39738;SDS011;25422;48.286;8.484;2023-01-09T08:11:25;1.60;;;1.30;;
39738;SDS011;25422;48.286;8.484;2023-01-09T08:13:50;2.45;;;1.13;;
39738;SDS011;25422;48.286;8.484;2023-01-09T08:16:16;2.25;;;1.08;;
39738;SDS011;25422;48.286;8.484;2023-01-09T08:18:41;3.80;;;1.10;;
39738;SDS011;25422;48.286;8.484;2023-01-09T08:21:07;6.90;;;1.60;;
39738;SDS011;25422;48.286;8.484;2023-01-09T08:23:33;3.28;;;1.30;;
39738;SDS011;25422;48.286;8.484;2023-01-09T08:25:59;4.10;;;1.33;;
39738;SDS011;25422;48.286;8.484;2023-01-09T08:28:24;4.00;;;1.08;;
39738;SDS011;25422;48.286;8.484;2023-01-09T08:30:49;5.82;;;1.20;;
39738;SDS011;25422;48.286;8.484;2023-01-09T08:33:15;4.95;;;1.20;;
39738;SDS011;25422;48.286;8.484;2023-01-09T08:35:44;3.50;;;1.35;;
39738;SDS011;25422;48.286;8.484;2023-01-09T08:38:09;4.13;;;1.20;;
39738;SDS011;25422;48.286;8.484;2023-01-09T08:40:35;2.95;;;1.25;;
39738;SDS011;25422;48.286;8.484;2023-01-09T08:43:01;4.22;;;1.10;;
39738;SDS011;25422;48.286;8.484;2023-01-09T08:45:45;4.43;;;1.60;;
39738;SDS011;25422;48.286;8.484;2023-01-09T08:48:29;6.97;;;1.45;;
39738;SDS011;25422;48.286;8.484;2023-01-09T08:50:55;7.65;;;1.13;;
39738;SDS011;25422;48.286;8.484;2023-01-09T08:53:20;6.30;;;1.33;;
39738;SDS011;25422;48.286;8.484;2023-01-09T08:55:46;7.85;;;1.63;;
39738;SDS011;25422;48.286;8.484;2023-01-09T08:58:11;4.40;;;1.40;;
39738;SDS011;25422;48.286;8.484;2023-01-09T09:00:37;3.60;;;1.25;;
39738;SDS011;25422;48.286;8.484;2023-01-09T09:03:02;2.53;;;1.10;;
39738;SDS011;25422;48.286;8.484;2023-01-09T09:05:28;5.50;;;1.30;;
39738;SDS011;25422;48.286;8.484;2023-01-09T09:07:55;4.88;;;1.30;;
39738;SDS011;25422;48.286;8.484;2023-01-09T09:10:22;4.43;;;0.98;;
39738;SDS011;25422;48.286;8.484;2023-01-09T09:12:49;4.63;;;1.95;;
39738;SDS011;25422;48.286;8.484;2023-01-09T09:15:16;6.25;;;2.95;;
39738;SDS011;25422;48.286;8.484;2023-01-09T09:17:55;10.30;;;2.83;;
39738;SDS011;25422;48.286;8.484;2023-01-09T09:20:23;5.03;;;1.50;;
39738;SDS011;25422;48.286;8.484;2023-01-09T09:22:50;6.53;;;1.58;;
39738;SDS011;25422;48.286;8.484;2023-01-09T09:25:18;5.35;;;1.70;;
39738;SDS011;25422;48.286;8.484;2023-01-09T09:27:43;3.28;;;1.52;;
39738;SDS011;25422;48.286;8.484;2023-01-09T09:30:10;4.25;;;1.52;;
39738;SDS011;25422;48.286;8.484;2023-01-09T09:32:37;7.72;;;1.92;;
39738;SDS011;25422;48.286;8.484;2023-01-09T09:35:03;5.50;;;2.00;;
39738;SDS011;25422;48.286;8.484;2023-01-09T09:37:29;7.70;;;2.05;;
39738;SDS011;25422;48.286;8.484;2023-01-09T09:39:55;3.78;;;1.50;;
39738;SDS011;25422;48.286;8.484;2023-01-09T09:56:34;5.28;;;1.48;;
39738;SDS011;25422;48.286;8.484;2023-01-09T09:59:13;11.27;;;4.50;;
39738;SDS011;25422;48.286;8.484;2023-01-09T10:02:27;5.40;;;1.90;;
39738;SDS011;25422;48.286;8.484;2023-01-09T10:04:45;4.07;;;1.40;;
39738;SDS011;25422;48.286;8.484;2023-01-09T10:07:19;4.85;;;1.42;;
39738;SDS011;25422;48.286;8.484;2023-01-09T10:09:48;7.25;;;1.30;;
39738;SDS011;25422;48.286;8.484;2023-01-09T10:15:16;10.45;;;2.38;;
39738;SDS011;25422;48.286;8.484;2023-01-09T10:17:58;4.80;;;1.33;;
39738;SDS011;25422;48.286;8.484;2023-01-09T10:23:56;6.93;;;1.73;;
39738;SDS011;25422;48.286;8.484;2023-01-09T10:26:38;5.65;;;1.30;;
39738;SDS011;25422;48.286;8.484;2023-01-09T10:34:53;7.10;;;1.33;;
39738;SDS011;25422;48.286;8.484;2023-01-09T10:37:33;6.60;;;1.42;;
39738;SDS011;25422;48.286;8.484;2023-01-09T10:40:07;8.50;;;1.60;;
39738;SDS011;25422;48.286;8.484;2023-01-09T10:45:23;4.70;;;1.50;;
39738;SDS011;25422;48.286;8.484;2023-01-09T10:47:52;5.68;;;1.30;;
39738;SDS011;25422;48.286;8.484;2023-01-09T10:50:27;4.68;;;1.40;;
39738;SDS011;25422;48.286;8.484;2023-01-09T10:52:58;7.45;;;2.72;;
39738;SDS011;25422;48.286;8.484;2023-01-09T10:55:31;7.10;;;2.00;;
39738;SDS011;25422;48.286;8.484;2023-01-09T10:58:09;8.32;;;1.70;;
39738;SDS011;25422;48.286;8.484;2023-01-09T11:00:37;9.13;;;4.07;;
39738;SDS011;25422;48.286;8.484;2023-01-09T11:03:03;5.95;;;2.75;;
39738;SDS011;25422;48.286;8.484;2023-01-09T11:05:29;5.28;;;2.28;;
39738;SDS011;25422;48.286;8.484;2023-01-09T11:10:46;11.63;;;3.42;;
39738;SDS011;25422;48.286;8.484;2023-01-09T11:13:33;15.27;;;7.05;;
39738;SDS011;25422;48.286;8.484;2023-01-09T11:18:39;7.35;;;1.80;;
39738;SDS011;25422;48.286;8.484;2023-01-09T11:24:15;4.38;;;1.40;;
39738;SDS011;25422;48.286;8.484;2023-01-09T11:26:51;6.15;;;1.42;;
39738;SDS011;25422;48.286;8.484;2023-01-09T11:29:19;4.72;;;1.40;;
39738;SDS011;25422;48.286;8.484;2023-01-09T11:31:57;3.22;;;1.10;;
39738;SDS011;25422;48.286;8.484;2023-01-09T11:34:33;4.38;;;1.20;;
39738;SDS011;25422;48.286;8.484;2023-01-09T11:37:02;7.30;;;1.52;;
39738;SDS011;25422;48.286;8.484;2023-01-09T11:39:33;6.93;;;1.55;;
39738;SDS011;25422;48.286;8.484;2023-01-09T11:42:03;4.47;;;0.95;;
39738;SDS011;25422;48.286;8.484;2023-01-09T11:44:30;5.60;;;3.07;;
39738;SDS011;25422;48.286;8.484;2023-01-09T11:46:57;3.95;;;0.90;;
39738;SDS011;25422;48.286;8.484;2023-01-09T11:49:24;1.65;;;1.00;;
39738;SDS011;25422;48.286;8.484;2023-01-09T11:52:10;2.90;;;0.90;;
39738;SDS011;25422;48.286;8.484;2023-01-09T11:57:13;1.88;;;1.40;;
39738;SDS011;25422;48.286;8.484;2023-01-09T11:59:39;1.70;;;1.27;;
39738;SDS011;25422;48.286;8.484;2023-01-09T12:02:22;1.92;;;1.08;;
39738;SDS011;25422;48.286;8.484;2023-01-09T12:16:05;16.98;;;10.25;;
39738;SDS011;25422;48.286;8.484;2023-01-09T12:26:32;2.42;;;1.73;;
39738;SDS011;25422;48.286;8.484;2023-01-09T12:29:16;1.20;;;0.93;;
39738;SDS011;25422;48.286;8.484;2023-01-09T12:34:44;1.08;;;0.95;;
39738;SDS011;25422;48.286;8.484;2023-01-09T12:40:50;9.32;;;6.88;;
39738;SDS011;25422;48.286;8.484;2023-01-09T12:51:30;9.00;;;4.03;;
39738;SDS011;25422;48.286;8.484;2023-01-09T12:54:03;5.55;;;4.97;;
39738;SDS011;25422;48.286;8.484;2023-01-09T12:56:44;8.50;;;3.55;;
39738;SDS011;25422;48.286;8.484;2023-01-09T12:59:33;10.85;;;6.20;;
39738;SDS011;25422;48.286;8.484;2023-01-09T13:02:05;11.07;;;4.38;;
39738;SDS011;25422;48.286;8.484;2023-01-09T13:04:43;3.53;;;2.15;;
39738;SDS011;25422;48.286;8.484;2023-01-09T13:07:22;8.20;;;4.25;;
39738;SDS011;25422;48.286;8.484;2023-01-09T13:09:55;11.15;;;4.63;;
39738;SDS011;25422;48.286;8.484;2023-01-09T13:12:26;16.92;;;7.18;;
39738;SDS011;25422;48.286;8.484;2023-01-09T13:15:17;12.80;;;4.97;;
39738;SDS011;25422;48.286;8.484;2023-01-09T13:20:35;5.70;;;3.10;;
39738;SDS011;25422;48.286;8.484;2023-01-09T13:23:06;4.15;;;2.00;;
39738;SDS011;25422;48.286;8.484;2023-01-09T13:25:43;6.15;;;3.95;;
39738;SDS011;25422;48.286;8.484;2023-01-09T13:28:17;2.75;;;2.13;;
39738;SDS011;25422;48.286;8.484;2023-01-09T13:30:51;4.90;;;1.90;;
39738;SDS011;25422;48.286;8.484;2023-01-09T13:33:20;2.95;;;1.40;;
39738;SDS011;25422;48.286;8.484;2023-01-09T13:35:51;1.90;;;1.00;;
39738;SDS011;25422;48.286;8.484;2023-01-09T13:38:23;3.92;;;1.10;;
39738;SDS011;25422;48.286;8.484;2023-01-09T13:41:23;3.92;;;1.88;;
39738;SDS011;25422;48.286;8.484;2023-01-09T13:44:05;3.83;;;1.20;;
39738;SDS011;25422;48.286;8.484;2023-01-09T13:46:44;4.28;;;1.10;;
39738;SDS011;25422;48.286;8.484;2023-01-09T13:55:25;4.68;;;1.20;;
39738;SDS011;25422;48.286;8.484;2023-01-09T13:57:31;3.30;;;1.00;;
39738;SDS011;25422;48.286;8.484;2023-01-09T14:05:03;1.52;;;1.33;;
39738;SDS011;25422;48.286;8.484;2023-01-09T14:07:39;3.35;;;1.27;;
39738;SDS011;25422;48.286;8.484;2023-01-09T14:10:15;3.45;;;1.38;;
39738;SDS011;25422;48.286;8.484;2023-01-09T14:12:47;2.30;;;1.10;;
39738;SDS011;25422;48.286;8.484;2023-01-09T14:15:32;3.50;;;1.42;;
39738;SDS011;25422;48.286;8.484;2023-01-09T14:18:03;2.13;;;1.45;;
39738;SDS011;25422;48.286;8.484;2023-01-09T14:23:07;4.57;;;1.05;;
39738;SDS011;25422;48.286;8.484;2023-01-09T14:25:46;4.40;;;1.33;;
39738;SDS011;25422;48.286;8.484;2023-01-09T14:28:22;3.83;;;1.20;;
39738;SDS011;25422;48.286;8.484;2023-01-09T14:43:58;11.40;;;3.95;;
39738;SDS011;25422;48.286;8.484;2023-01-09T14:46:28;5.65;;;1.60;;
39738;SDS011;25422;48.286;8.484;2023-01-09T14:49:27;2.70;;;1.23;;
39738;SDS011;25422;48.286;8.484;2023-01-09T14:52:00;5.68;;;2.22;;
39738;SDS011;25422;48.286;8.484;2023-01-09T14:54:32;7.93;;;3.17;;
39738;SDS011;25422;48.286;8.484;2023-01-09T14:57:01;3.65;;;1.67;;
39738;SDS011;25422;48.286;8.484;2023-01-09T14:59:27;13.70;;;7.40;;
39738;SDS011;25422;48.286;8.484;2023-01-09T15:01:53;3.53;;;1.20;;
39738;SDS011;25422;48.286;8.484;2023-01-09T15:04:26;2.90;;;1.30;;
39738;SDS011;25422;48.286;8.484;2023-01-09T15:06:56;2.20;;;1.00;;
39738;SDS011;25422;48.286;8.484;2023-01-09T15:09:43;3.83;;;1.23;;
39738;SDS011;25422;48.286;8.484;2023-01-09T15:12:09;2.45;;;1.10;;
39738;SDS011;25422;48.286;8.484;2023-01-09T15:14:42;3.03;;;1.30;;
39738;SDS011;25422;48.286;8.484;2023-01-09T15:17:20;3.00;;;1.60;;
39738;SDS011;25422;48.286;8.484;2023-01-09T15:19:54;6.68;;;2.20;;
39738;SDS011;25422;48.286;8.484;2023-01-09T15:22:24;5.60;;;2.20;;
39738;SDS011;25422;48.286;8.484;2023-01-09T15:24:53;16.35;;;7.53;;
39738;SDS011;25422;48.286;8.484;2023-01-09T15:27:19;13.93;;;6.32;;
39738;SDS011;25422;48.286;8.484;2023-01-09T15:29:46;8.88;;;3.60;;
39738;SDS011;25422;48.286;8.484;2023-01-09T15:34:52;5.50;;;3.30;;
39738;SDS011;25422;48.286;8.484;2023-01-09T15:39:58;3.38;;;1.55;;
39738;SDS011;25422;48.286;8.484;2023-01-09T15:42:26;2.58;;;1.25;;
39738;SDS011;25422;48.286;8.484;2023-01-09T15:47:53;2.53;;;1.40;;
39738;SDS011;25422;48.286;8.484;2023-01-09T15:51:09;2.72;;;1.50;;
39738;SDS011;25422;48.286;8.484;2023-01-09T15:53:39;8.13;;;3.28;;
39738;SDS011;25422;48.286;8.484;2023-01-09T15:56:16;4.00;;;1.83;;
39738;SDS011;25422;48.286;8.484;2023-01-09T15:58:48;1.70;;;1.20;;
39738;SDS011;25422;48.286;8.484;2023-01-09T16:01:19;1.58;;;1.10;;
39738;SDS011;25422;48.286;8.484;2023-01-09T16:06:27;1.45;;;1.00;;
39738;SDS011;25422;48.286;8.484;2023-01-09T16:08:55;4.40;;;1.67;;
39738;SDS011;25422;48.286;8.484;2023-01-09T16:11:23;2.47;;;1.70;;
39738;SDS011;25422;48.286;8.484;2023-01-09T16:13:52;1.98;;;1.48;;
39738;SDS011;25422;48.286;8.484;2023-01-09T16:16:25;3.45;;;1.70;;
39738;SDS011;25422;48.286;8.484;2023-01-09T16:18:53;4.82;;;2.17;;
39738;SDS011;25422;48.286;8.484;2023-01-09T16:21:28;9.40;;;5.13;;
39738;SDS011;25422;48.286;8.484;2023-01-09T16:24:20;10.40;;;5.50;;
39738;SDS011;25422;48.286;8.484;2023-01-09T16:26:45;35.35;;;18.98;;
39738;SDS011;25422;48.286;8.484;2023-01-09T16:32:00;17.60;;;7.60;;
39738;SDS011;25422;48.286;8.484;2023-01-09T16:34:27;5.88;;;4.07;;
39738;SDS011;25422;48.286;8.484;2023-01-09T16:36:53;7.22;;;2.88;;
39738;SDS011;25422;48.286;8.484;2023-01-09T16:39:19;19.70;;;11.15;;
39738;SDS011;25422;48.286;8.484;2023-01-09T16:41:45;30.50;;;17.02;;
39738;SDS011;25422;48.286;8.484;2023-01-09T16:44:29;22.95;;;12.55;;
39738;SDS011;25422;48.286;8.484;2023-01-09T16:46:54;13.88;;;7.65;;
39738;SDS011;25422;48.286;8.484;2023-01-09T16:49:22;13.55;;;8.48;;
39738;SDS011;25422;48.286;8.484;2023-01-09T16:51:51;11.85;;;6.82;;
39738;SDS011;25422;48.286;8.484;2023-01-09T16:54:17;9.43;;;6.07;;
39738;SDS011;25422;48.286;8.484;2023-01-09T16:56:44;18.70;;;11.65;;
39738;SDS011;25422;48.286;8.484;2023-01-09T16:59:18;12.82;;;8.02;;
39738;SDS011;25422;48.286;8.484;2023-01-09T17:01:48;10.55;;;6.63;;
39738;SDS011;25422;48.286;8.484;2023-01-09T17:04:15;12.73;;;7.05;;
39738;SDS011;25422;48.286;8.484;2023-01-09T17:06:43;5.88;;;4.03;;
39738;SDS011;25422;48.286;8.484;2023-01-09T17:09:13;8.00;;;4.35;;
39738;SDS011;25422;48.286;8.484;2023-01-09T17:11:40;5.28;;;2.85;;
39738;SDS011;25422;48.286;8.484;2023-01-09T17:14:07;4.95;;;2.85;;
39738;SDS011;25422;48.286;8.484;2023-01-09T17:16:35;2.92;;;2.38;;
39738;SDS011;25422;48.286;8.484;2023-01-09T17:19:01;7.35;;;4.55;;
39738;SDS011;25422;48.286;8.484;2023-01-09T17:21:27;16.98;;;8.50;;
39738;SDS011;25422;48.286;8.484;2023-01-09T17:23:53;31.17;;;14.95;;